sensor_id;sensor_type;location;lat;lon;timestamp;pressure;altitude;pressure_sealevel;temperature;humidity
23953;BME280;12163;49.316;6.092;2023-07-13T00:00:11;99428.00;;;18.48;50.30
23953;BME280;12163;49.316;6.092;2023-07-13T00:02:38;99430.63;;;18.45;50.58
23953;BME280;12163;49.316;6.092;2023-07-13T00:05:05;99435.66;;;18.43;50.25
23953;BME280;12163;49.316;6.092;2023-07-13T00:07:33;99435.97;;;18.41;51.23
23953;BME280;12163;49.316;6.092;2023-07-13T00:10:00;99439.03;;;18.40;51.23
23953;BME280;12163;49.316;6.092;2023-07-13T00:12:30;99434.47;;;18.32;51.02
23953;BME280;12163;49.316;6.092;2023-07-13T00:14:59;99434.69;;;18.27;50.76
23953;BME280;12163;49.316;6.092;2023-07-13T00:17:27;99426.34;;;18.23;51.09
23953;BME280;12163;49.316;6.092;2023-07-13T00:19:55;99431.66;;;18.20;51.21
23953;BME280;12163;49.316;6.092;2023-07-13T00:22:22;99422.09;;;18.14;52.05
23953;BME280;12163;49.316;6.092;2023-07-13T00:24:53;99428.59;;;18.09;52.25
23953;BME280;12163;49.316;6.092;2023-07-13T00:27:22;99434.69;;;18.06;52.12
23953;BME280;12163;49.316;6.092;2023-07-13T00:29:49;99434.91;;;18.01;52.83
23953;BME280;12163;49.316;6.092;2023-07-13T00:32:16;99431.59;;;17.96;52.29
23953;BME280;12163;49.316;6.092;2023-07-13T00:34:42;99429.06;;;17.91;52.50
23953;BME280;12163;49.316;6.092;2023-07-13T00:37:09;99421.56;;;17.88;52.70
23953;BME280;12163;49.316;6.092;2023-07-13T00:39:38;99413.69;;;17.86;53.04
23953;BME280;12163;49.316;6.092;2023-07-13T00:42:05;99420.28;;;17.85;53.31
23953;BME280;12163;49.316;6.092;2023-07-13T00:44:32;99421.09;;;17.86;53.19
23953;BME280;12163;49.316;6.092;2023-07-13T00:46:58;99425.63;;;17.82;53.43
23953;BME280;12163;49.316;6.092;2023-07-13T00:49:27;99423.38;;;17.84;53.57
23953;BME280;12163;49.316;6.092;2023-07-13T00:51:59;99421.78;;;17.83;53.42
23953;BME280;12163;49.316;6.092;2023-07-13T00:54:33;99420.97;;;17.82;53.58
23953;BME280;12163;49.316;6.092;2023-07-13T00:57:03;99421.88;;;17.86;54.09
23953;BME280;12163;49.316;6.092;2023-07-13T00:59:31;99431.34;;;17.89;53.82
23953;BME280;12163;49.316;6.092;2023-07-13T01:01:58;99433.75;;;17.90;53.50
23953;BME280;12163;49.316;6.092;2023-07-13T01:04:25;99437.25;;;17.91;53.76
23953;BME280;12163;49.316;6.092;2023-07-13T01:06:52;99429.53;;;17.93;53.78
23953;BME280;12163;49.316;6.092;2023-07-13T01:09:20;99438.19;;;17.95;53.70
23953;BME280;12163;49.316;6.092;2023-07-13T01:11:48;99439.13;;;17.99;54.12
23953;BME280;12163;49.316;6.092;2023-07-13T01:14:15;99443.47;;;18.00;53.87
23953;BME280;12163;49.316;6.092;2023-07-13T01:16:45;99444.38;;;18.04;53.73
23953;BME280;12163;49.316;6.092;2023-07-13T01:22:10;99449.63;;;18.09;53.92
23953;BME280;12163;49.316;6.092;2023-07-13T01:24:39;99443.94;;;18.14;53.20
23953;BME280;12163;49.316;6.092;2023-07-13T01:27:07;99443.28;;;18.17;53.39
23953;BME280;12163;49.316;6.092;2023-07-13T01:29:36;99457.38;;;18.19;53.10
23953;BME280;12163;49.316;6.092;2023-07-13T01:32:17;99463.34;;;18.21;53.60
23953;BME280;12163;49.316;6.092;2023-07-13T01:34:54;99458.34;;;18.23;53.47
23953;BME280;12163;49.316;6.092;2023-07-13T01:37:22;99461.16;;;18.26;54.17
23953;BME280;12163;49.316;6.092;2023-07-13T01:39:49;99455.50;;;18.31;53.36
23953;BME280;12163;49.316;6.092;2023-07-13T01:42:16;99470.56;;;18.37;53.96
23953;BME280;12163;49.316;6.092;2023-07-13T01:44:42;99445.19;;;18.37;54.23
23953;BME280;12163;49.316;6.092;2023-07-13T01:47:10;99453.38;;;18.37;54.15
23953;BME280;12163;49.316;6.092;2023-07-13T01:49:37;99458.97;;;18.40;53.58
23953;BME280;12163;49.316;6.092;2023-07-13T01:52:04;99457.50;;;18.43;53.59
23953;BME280;12163;49.316;6.092;2023-07-13T01:54:31;99467.06;;;18.49;53.87
23953;BME280;12163;49.316;6.092;2023-07-13T01:57:00;99468.13;;;18.56;54.08
23953;BME280;12163;49.316;6.092;2023-07-13T01:59:27;99457.28;;;18.60;53.55
23953;BME280;12163;49.316;6.092;2023-07-13T02:01:53;99462.19;;;18.66;53.35
23953;BME280;12163;49.316;6.092;2023-07-13T02:04:20;99465.06;;;18.70;53.49
23953;BME280;12163;49.316;6.092;2023-07-13T02:06:47;99470.53;;;18.70;53.37
23953;BME280;12163;49.316;6.092;2023-07-13T02:09:13;99462.56;;;18.65;53.21
23953;BME280;12163;49.316;6.092;2023-07-13T02:11:40;99478.16;;;18.64;53.63
23953;BME280;12163;49.316;6.092;2023-07-13T02:14:07;99480.06;;;18.64;52.86
23953;BME280;12163;49.316;6.092;2023-07-13T02:16:33;99481.19;;;18.63;52.74
23953;BME280;12163;49.316;6.092;2023-07-13T02:19:00;99481.19;;;18.63;53.38
23953;BME280;12163;49.316;6.092;2023-07-13T02:21:27;99479.41;;;18.67;53.38
23953;BME280;12163;49.316;6.092;2023-07-13T02:23:54;99481.78;;;18.68;52.83
23953;BME280;12163;49.316;6.092;2023-07-13T02:26:21;99480.41;;;18.74;52.82
23953;BME280;12163;49.316;6.092;2023-07-13T02:28:47;99478.97;;;18.76;53.30
23953;BME280;12163;49.316;6.092;2023-07-13T02:31:16;99490.81;;;18.80;53.34
23953;BME280;12163;49.316;6.092;2023-07-13T02:33:43;99476.91;;;18.85;53.44
23953;BME280;12163;49.316;6.092;2023-07-13T02:36:10;99477.03;;;18.89;52.70
23953;BME280;12163;49.316;6.092;2023-07-13T02:38:37;99466.91;;;18.89;53.11
23953;BME280;12163;49.316;6.092;2023-07-13T02:41:06;99472.00;;;18.91;53.14
23953;BME280;12163;49.316;6.092;2023-07-13T02:43:33;99484.91;;;18.90;53.60
23953;BME280;12163;49.316;6.092;2023-07-13T02:46:01;99473.97;;;18.90;52.89
23953;BME280;12163;49.316;6.092;2023-07-13T02:48:34;99469.63;;;18.89;53.56
23953;BME280;12163;49.316;6.092;2023-07-13T02:51:01;99484.09;;;18.90;53.55
23953;BME280;12163;49.316;6.092;2023-07-13T02:53:27;99483.50;;;18.84;53.14
23953;BME280;12163;49.316;6.092;2023-07-13T02:55:54;99482.16;;;18.78;53.16
23953;BME280;12163;49.316;6.092;2023-07-13T02:58:21;99473.34;;;18.73;53.22
23953;BME280;12163;49.316;6.092;2023-07-13T03:00:48;99471.75;;;18.72;53.64
23953;BME280;12163;49.316;6.092;2023-07-13T03:03:16;99467.09;;;18.73;53.25
23953;BME280;12163;49.316;6.092;2023-07-13T03:05:44;99481.25;;;18.74;53.78
23953;BME280;12163;49.316;6.092;2023-07-13T03:08:17;99479.78;;;18.77;53.24
23953;BME280;12163;49.316;6.092;2023-07-13T03:10:44;99482.97;;;18.79;54.24
23953;BME280;12163;49.316;6.092;2023-07-13T03:13:11;99484.66;;;18.83;53.76
23953;BME280;12163;49.316;6.092;2023-07-13T03:15:38;99483.50;;;18.84;53.24
23953;BME280;12163;49.316;6.092;2023-07-13T03:18:04;99485.59;;;18.87;53.33
23953;BME280;12163;49.316;6.092;2023-07-13T03:20:34;99485.69;;;18.91;53.21
23953;BME280;12163;49.316;6.092;2023-07-13T03:23:00;99493.22;;;18.94;53.39
23953;BME280;12163;49.316;6.092;2023-07-13T03:25:27;99484.66;;;18.95;53.64
23953;BME280;12163;49.316;6.092;2023-07-13T03:27:54;99496.06;;;18.97;53.30
23953;BME280;12163;49.316;6.092;2023-07-13T03:30:21;99485.59;;;18.99;52.64
23953;BME280;12163;49.316;6.092;2023-07-13T03:32:47;99485.25;;;19.01;53.41
23953;BME280;12163;49.316;6.092;2023-07-13T03:35:14;99486.03;;;19.01;52.87
23953;BME280;12163;49.316;6.092;2023-07-13T03:37:41;99489.22;;;19.03;53.36
23953;BME280;12163;49.316;6.092;2023-07-13T03:40:10;99502.91;;;19.03;53.51
23953;BME280;12163;49.316;6.092;2023-07-13T03:42:36;99506.00;;;19.02;52.51
23953;BME280;12163;49.316;6.092;2023-07-13T03:45:03;99502.09;;;18.91;53.37
23953;BME280;12163;49.316;6.092;2023-07-13T03:47:30;99503.00;;;18.83;53.00
23953;BME280;12163;49.316;6.092;2023-07-13T03:49:57;99504.94;;;18.82;53.72
23953;BME280;12163;49.316;6.092;2023-07-13T03:52:23;99502.66;;;18.84;53.20
23953;BME280;12163;49.316;6.092;2023-07-13T03:54:50;99505.38;;;18.84;53.07
23953;BME280;12163;49.316;6.092;2023-07-13T03:57:18;99509.84;;;18.89;53.25
23953;BME280;12163;49.316;6.092;2023-07-13T03:59:45;99511.31;;;18.86;53.52
23953;BME280;12163;49.316;6.092;2023-07-13T04:02:11;99517.13;;;18.85;53.64
23953;BME280;12163;49.316;6.092;2023-07-13T04:04:38;99518.72;;;18.86;53.93
23953;BME280;12163;49.316;6.092;2023-07-13T04:07:07;99517.38;;;18.92;53.89
23953;BME280;12163;49.316;6.092;2023-07-13T04:09:35;99513.16;;;18.94;53.82
23953;BME280;12163;49.316;6.092;2023-07-13T04:12:02;99515.34;;;19.01;53.59
23953;BME280;12163;49.316;6.092;2023-07-13T04:14:29;99511.09;;;19.03;53.15
23953;BME280;12163;49.316;6.092;2023-07-13T04:16:55;99517.47;;;19.07;53.18
23953;BME280;12163;49.316;6.092;2023-07-13T04:19:22;99517.47;;;19.07;52.57
23953;BME280;12163;49.316;6.092;2023-07-13T04:21:49;99516.25;;;19.05;52.52
23953;BME280;12163;49.316;6.092;2023-07-13T04:24:16;99525.59;;;19.04;52.35
23953;BME280;12163;49.316;6.092;2023-07-13T04:26:42;99528.44;;;19.07;53.37
23953;BME280;12163;49.316;6.092;2023-07-13T04:29:10;99527.41;;;19.12;53.35
23953;BME280;12163;49.316;6.092;2023-07-13T04:31:36;99532.19;;;19.15;52.18
23953;BME280;12163;49.316;6.092;2023-07-13T04:34:03;99532.19;;;19.15;52.71
23953;BME280;12163;49.316;6.092;2023-07-13T04:36:30;99530.75;;;19.17;53.53
23953;BME280;12163;49.316;6.092;2023-07-13T04:38:56;99535.41;;;19.17;52.88
23953;BME280;12163;49.316;6.092;2023-07-13T04:41:23;99541.34;;;19.19;52.52
23953;BME280;12163;49.316;6.092;2023-07-13T04:43:50;99534.41;;;19.21;53.34
23953;BME280;12163;49.316;6.092;2023-07-13T04:46:17;99534.16;;;19.26;52.77
23953;BME280;12163;49.316;6.092;2023-07-13T04:48:46;99537.81;;;19.30;52.50
23953;BME280;12163;49.316;6.092;2023-07-13T04:51:13;99543.84;;;19.36;52.48
23953;BME280;12163;49.316;6.092;2023-07-13T04:53:39;99541.25;;;19.39;52.95
23953;BME280;12163;49.316;6.092;2023-07-13T04:56:06;99537.13;;;19.45;53.01
23953;BME280;12163;49.316;6.092;2023-07-13T04:58:33;99546.25;;;19.49;52.63
23953;BME280;12163;49.316;6.092;2023-07-13T05:01:01;99548.78;;;19.54;52.59
23953;BME280;12163;49.316;6.092;2023-07-13T05:03:28;99548.09;;;19.57;53.03
23953;BME280;12163;49.316;6.092;2023-07-13T05:06:01;99557.19;;;19.61;52.12
23953;BME280;12163;49.316;6.092;2023-07-13T05:08:28;99550.22;;;19.64;52.03
23953;BME280;12163;49.316;6.092;2023-07-13T05:10:54;99551.47;;;19.66;51.72
23953;BME280;12163;49.316;6.092;2023-07-13T05:13:21;99548.06;;;19.69;51.30
23953;BME280;12163;49.316;6.092;2023-07-13T05:15:59;99547.72;;;19.71;51.82
23953;BME280;12163;49.316;6.092;2023-07-13T05:18:27;99551.81;;;19.77;51.76
23953;BME280;12163;49.316;6.092;2023-07-13T05:20:59;99557.03;;;19.82;51.56
23953;BME280;12163;49.316;6.092;2023-07-13T05:23:26;99551.22;;;19.83;51.25
23953;BME280;12163;49.316;6.092;2023-07-13T05:25:53;99552.47;;;19.86;50.84
23953;BME280;12163;49.316;6.092;2023-07-13T05:28:20;99550.53;;;19.86;50.70
23953;BME280;12163;49.316;6.092;2023-07-13T05:30:48;99553.03;;;19.91;50.38
23953;BME280;12163;49.316;6.092;2023-07-13T05:33:15;99550.84;;;19.97;50.10
23953;BME280;12163;49.316;6.092;2023-07-13T05:35:42;99552.13;;;19.99;49.82
23953;BME280;12163;49.316;6.092;2023-07-13T05:38:09;99545.50;;;20.00;49.62
23953;BME280;12163;49.316;6.092;2023-07-13T05:40:35;99552.78;;;20.08;49.43
23953;BME280;12163;49.316;6.092;2023-07-13T05:43:02;99540.44;;;20.14;49.39
23953;BME280;12163;49.316;6.092;2023-07-13T05:45:29;99543.63;;;20.16;49.32
23953;BME280;12163;49.316;6.092;2023-07-13T05:47:55;99549.22;;;20.20;49.14
23953;BME280;12163;49.316;6.092;2023-07-13T05:50:22;99552.78;;;20.20;48.89
23953;BME280;12163;49.316;6.092;2023-07-13T05:52:49;99549.53;;;20.30;48.27
23953;BME280;12163;49.316;6.092;2023-07-13T05:55:15;99550.41;;;20.34;48.69
23953;BME280;12163;49.316;6.092;2023-07-13T05:57:42;99555.63;;;20.39;48.56
23953;BME280;12163;49.316;6.092;2023-07-13T06:00:09;99558.34;;;20.51;47.60
23953;BME280;12163;49.316;6.092;2023-07-13T06:02:36;99557.44;;;20.47;47.67
23953;BME280;12163;49.316;6.092;2023-07-13T06:05:03;99557.09;;;20.48;47.80
23953;BME280;12163;49.316;6.092;2023-07-13T06:07:30;99554.78;;;20.50;47.39
23953;BME280;12163;49.316;6.092;2023-07-13T06:09:56;99558.78;;;20.53;46.83
23953;BME280;12163;49.316;6.092;2023-07-13T06:12:23;99561.97;;;20.55;46.74
23953;BME280;12163;49.316;6.092;2023-07-13T06:14:49;99556.66;;;20.62;47.00
23953;BME280;12163;49.316;6.092;2023-07-13T06:17:16;99563.50;;;20.68;47.06
23953;BME280;12163;49.316;6.092;2023-07-13T06:19:43;99556.81;;;20.81;46.78
23953;BME280;12163;49.316;6.092;2023-07-13T06:22:10;99564.34;;;20.84;45.93
23953;BME280;12163;49.316;6.092;2023-07-13T06:24:37;99571.31;;;20.81;45.83
23953;BME280;12163;49.316;6.092;2023-07-13T06:27:03;99563.44;;;20.80;45.17
23953;BME280;12163;49.316;6.092;2023-07-13T06:29:30;99585.03;;;20.81;44.82
23953;BME280;12163;49.316;6.092;2023-07-13T06:31:57;99578.06;;;20.84;44.86
23953;BME280;12163;49.316;6.092;2023-07-13T06:34:24;99584.09;;;20.89;44.36
23953;BME280;12163;49.316;6.092;2023-07-13T06:36:51;99588.16;;;20.95;44.69
23953;BME280;12163;49.316;6.092;2023-07-13T06:39:17;99579.88;;;21.07;44.82
23953;BME280;12163;49.316;6.092;2023-07-13T06:41:44;99578.47;;;21.13;44.77
23953;BME280;12163;49.316;6.092;2023-07-13T06:44:10;99580.94;;;21.18;44.80
23953;BME280;12163;49.316;6.092;2023-07-13T06:46:37;99578.81;;;21.27;44.82
23953;BME280;12163;49.316;6.092;2023-07-13T06:49:04;99584.75;;;21.29;45.19
23953;BME280;12163;49.316;6.092;2023-07-13T06:51:31;99589.63;;;21.36;45.21
23953;BME280;12163;49.316;6.092;2023-07-13T06:53:57;99579.97;;;21.42;45.24
23953;BME280;12163;49.316;6.092;2023-07-13T06:56:24;99589.19;;;21.49;45.41
23953;BME280;12163;49.316;6.092;2023-07-13T06:58:50;99588.81;;;21.51;44.50
23953;BME280;12163;49.316;6.092;2023-07-13T07:01:17;99594.28;;;21.51;45.04
23953;BME280;12163;49.316;6.092;2023-07-13T07:03:44;99592.69;;;21.50;44.98
23953;BME280;12163;49.316;6.092;2023-07-13T07:06:20;99592.69;;;21.50;45.33
23953;BME280;12163;49.316;6.092;2023-07-13T07:08:48;99587.22;;;21.50;45.34
23953;BME280;12163;49.316;6.092;2023-07-13T07:11:18;99594.06;;;21.56;45.61
23953;BME280;12163;49.316;6.092;2023-07-13T07:13:45;99598.13;;;21.62;45.38
23953;BME280;12163;49.316;6.092;2023-07-13T07:16:12;99602.63;;;21.70;45.35
23953;BME280;12163;49.316;6.092;2023-07-13T07:18:39;99599.97;;;21.73;45.13
23953;BME280;12163;49.316;6.092;2023-07-13T07:21:05;99606.94;;;21.86;45.64
23953;BME280;12163;49.316;6.092;2023-07-13T07:23:32;99605.53;;;21.92;45.24
23953;BME280;12163;49.316;6.092;2023-07-13T07:25:59;99600.75;;;21.89;44.93
23953;BME280;12163;49.316;6.092;2023-07-13T07:28:25;99604.00;;;21.95;43.58
23953;BME280;12163;49.316;6.092;2023-07-13T07:31:08;99606.88;;;21.83;43.40
23953;BME280;12163;49.316;6.092;2023-07-13T07:33:38;99609.09;;;21.77;43.25
23953;BME280;12163;49.316;6.092;2023-07-13T07:36:05;99625.69;;;21.81;43.62
23953;BME280;12163;49.316;6.092;2023-07-13T07:38:34;99619.81;;;21.82;42.86
23953;BME280;12163;49.316;6.092;2023-07-13T07:41:04;99627.06;;;21.75;43.25
23953;BME280;12163;49.316;6.092;2023-07-13T07:43:34;99621.59;;;21.75;43.57
23953;BME280;12163;49.316;6.092;2023-07-13T07:46:02;99622.31;;;21.72;43.88
23953;BME280;12163;49.316;6.092;2023-07-13T07:48:30;99621.00;;;21.66;43.45
23953;BME280;12163;49.316;6.092;2023-07-13T07:50:56;99620.69;;;21.55;43.78
23953;BME280;12163;49.316;6.092;2023-07-13T07:53:23;99627.97;;;21.48;43.63
23953;BME280;12163;49.316;6.092;2023-07-13T07:55:50;99627.06;;;21.44;43.76
23953;BME280;12163;49.316;6.092;2023-07-13T07:58:20;99617.16;;;21.39;44.16
23953;BME280;12163;49.316;6.092;2023-07-13T08:00:50;99625.31;;;21.36;44.18
23953;BME280;12163;49.316;6.092;2023-07-13T08:03:20;99618.22;;;21.35;44.29
23953;BME280;12163;49.316;6.092;2023-07-13T08:05:52;99629.38;;;21.42;44.36
23953;BME280;12163;49.316;6.092;2023-07-13T08:08:39;99624.94;;;21.53;44.27
23953;BME280;12163;49.316;6.092;2023-07-13T08:11:07;99624.63;;;21.70;44.57
23953;BME280;12163;49.316;6.092;2023-07-13T08:13:37;99629.72;;;21.87;43.61
23953;BME280;12163;49.316;6.092;2023-07-13T08:16:05;99627.75;;;22.03;43.29
23953;BME280;12163;49.316;6.092;2023-07-13T08:18:32;99620.25;;;22.19;42.99
23953;BME280;12163;49.316;6.092;2023-07-13T08:21:06;99628.38;;;22.30;42.75
23953;BME280;12163;49.316;6.092;2023-07-13T08:23:34;99615.94;;;22.36;42.51
23953;BME280;12163;49.316;6.092;2023-07-13T08:26:01;99616.34;;;22.54;42.03
23953;BME280;12163;49.316;6.092;2023-07-13T08:28:28;99625.25;;;22.66;41.80
23953;BME280;12163;49.316;6.092;2023-07-13T08:31:00;99622.94;;;22.68;41.76
23953;BME280;12163;49.316;6.092;2023-07-13T08:33:26;99625.25;;;22.66;41.47
23953;BME280;12163;49.316;6.092;2023-07-13T08:35:53;99616.63;;;22.68;40.97
23953;BME280;12163;49.316;6.092;2023-07-13T08:38:20;99622.19;;;22.71;40.78
23953;BME280;12163;49.316;6.092;2023-07-13T08:40:52;99621.47;;;22.74;41.33
23953;BME280;12163;49.316;6.092;2023-07-13T08:43:25;99620.09;;;22.84;40.87
23953;BME280;12163;49.316;6.092;2023-07-13T08:45:59;99630.28;;;22.83;40.50
23953;BME280;12163;49.316;6.092;2023-07-13T08:48:31;99623.78;;;22.91;40.20
23953;BME280;12163;49.316;6.092;2023-07-13T08:53:37;99622.16;;;23.09;40.00
23953;BME280;12163;49.316;6.092;2023-07-13T08:56:13;99615.31;;;23.22;39.33
23953;BME280;12163;49.316;6.092;2023-07-13T08:58:41;99622.50;;;23.27;39.05
23953;BME280;12163;49.316;6.092;2023-07-13T09:01:23;99619.97;;;23.41;39.43
23953;BME280;12163;49.316;6.092;2023-07-13T09:04:20;99624.63;;;23.59;38.64
23953;BME280;12163;49.316;6.092;2023-07-13T09:12:16;99625.19;;;23.46;39.13
23953;BME280;12163;49.316;6.092;2023-07-13T09:14:47;99625.94;;;23.43;39.28
23953;BME280;12163;49.316;6.092;2023-07-13T09:17:22;99631.38;;;23.39;38.83
23953;BME280;12163;49.316;6.092;2023-07-13T09:19:57;99624.19;;;23.35;39.06
23953;BME280;12163;49.316;6.092;2023-07-13T09:22:29;99624.38;;;23.45;39.16
23953;BME280;12163;49.316;6.092;2023-07-13T09:25:20;99630.63;;;23.42;39.29
23953;BME280;12163;49.316;6.092;2023-07-13T09:27:48;99622.69;;;23.37;39.46
23953;BME280;12163;49.316;6.092;2023-07-13T09:32:43;99624.75;;;23.21;39.55
23953;BME280;12163;49.316;6.092;2023-07-13T09:35:15;99614.47;;;23.18;39.61
23953;BME280;12163;49.316;6.092;2023-07-13T09:37:44;99621.84;;;23.33;39.78
23953;BME280;12163;49.316;6.092;2023-07-13T09:40:20;99616.22;;;23.52;39.79
23953;BME280;12163;49.316;6.092;2023-07-13T09:42:49;99604.69;;;23.69;39.03
23953;BME280;12163;49.316;6.092;2023-07-13T09:45:27;99625.19;;;23.94;38.59
23953;BME280;12163;49.316;6.092;2023-07-13T09:48:06;99628.38;;;23.96;37.62
23953;BME280;12163;49.316;6.092;2023-07-13T09:50:35;99611.69;;;23.86;37.82
23953;BME280;12163;49.316;6.092;2023-07-13T09:53:02;99614.69;;;23.77;37.99
23953;BME280;12163;49.316;6.092;2023-07-13T09:55:38;99621.91;;;23.85;38.28
23953;BME280;12163;49.316;6.092;2023-07-13T09:58:11;99628.50;;;24.03;37.88
23953;BME280;12163;49.316;6.092;2023-07-13T10:00:39;99623.16;;;24.17;37.78
23953;BME280;12163;49.316;6.092;2023-07-13T10:03:21;99633.47;;;24.20;36.90
23953;BME280;12163;49.316;6.092;2023-07-13T10:05:51;99630.19;;;24.11;37.54
23953;BME280;12163;49.316;6.092;2023-07-13T10:10:58;99637.81;;;23.95;38.58
23953;BME280;12163;49.316;6.092;2023-07-13T10:13:48;99638.13;;;23.90;38.80
23953;BME280;12163;49.316;6.092;2023-07-13T10:16:17;99637.09;;;23.98;37.73
23953;BME280;12163;49.316;6.092;2023-07-13T10:18:58;99644.19;;;23.99;37.50
23953;BME280;12163;49.316;6.092;2023-07-13T10:21:29;99641.38;;;23.96;37.48
23953;BME280;12163;49.316;6.092;2023-07-13T10:24:23;99632.53;;;24.09;37.64
23953;BME280;12163;49.316;6.092;2023-07-13T10:30:13;99633.22;;;24.58;36.88
23953;BME280;12163;49.316;6.092;2023-07-13T10:32:43;99647.13;;;24.65;36.95
23953;BME280;12163;49.316;6.092;2023-07-13T10:35:12;99636.50;;;24.67;37.30
23953;BME280;12163;49.316;6.092;2023-07-13T10:38:06;99635.94;;;24.87;36.55
23953;BME280;12163;49.316;6.092;2023-07-13T10:40:40;99644.38;;;25.01;36.22
23953;BME280;12163;49.316;6.092;2023-07-13T10:43:20;99643.97;;;24.99;36.11
23953;BME280;12163;49.316;6.092;2023-07-13T10:45:50;99640.88;;;25.08;35.90
23953;BME280;12163;49.316;6.092;2023-07-13T10:48:18;99633.09;;;25.17;35.63
23953;BME280;12163;49.316;6.092;2023-07-13T10:50:48;99636.00;;;25.27;35.71
23953;BME280;12163;49.316;6.092;2023-07-13T10:53:30;99644.00;;;25.39;35.42
23953;BME280;12163;49.316;6.092;2023-07-13T10:56:00;99638.00;;;25.30;35.32
23953;BME280;12163;49.316;6.092;2023-07-13T10:58:38;99642.47;;;25.42;34.97
23953;BME280;12163;49.316;6.092;2023-07-13T11:01:15;99639.34;;;25.47;35.18
23953;BME280;12163;49.316;6.092;2023-07-13T11:04:00;99643.91;;;25.72;34.32
23953;BME280;12163;49.316;6.092;2023-07-13T11:08:57;99638.06;;;25.81;34.77
23953;BME280;12163;49.316;6.092;2023-07-13T11:11:34;99643.78;;;25.58;34.27
23953;BME280;12163;49.316;6.092;2023-07-13T11:14:05;99646.81;;;25.43;34.97
23953;BME280;12163;49.316;6.092;2023-07-13T11:16:50;99649.16;;;25.41;35.13
23953;BME280;12163;49.316;6.092;2023-07-13T11:22:09;99645.16;;;25.35;35.46
23953;BME280;12163;49.316;6.092;2023-07-13T11:24:52;99635.88;;;25.57;35.48
23953;BME280;12163;49.316;6.092;2023-07-13T11:27:40;99624.56;;;25.72;34.46
23953;BME280;12163;49.316;6.092;2023-07-13T11:30:21;99632.19;;;25.86;34.40
23953;BME280;12163;49.316;6.092;2023-07-13T11:33:13;99627.47;;;25.90;33.95
23953;BME280;12163;49.316;6.092;2023-07-13T11:35:49;99651.38;;;26.15;33.72
23953;BME280;12163;49.316;6.092;2023-07-13T11:38:20;99634.72;;;26.08;32.79
23953;BME280;12163;49.316;6.092;2023-07-13T11:40:50;99635.47;;;26.05;33.26
23953;BME280;12163;49.316;6.092;2023-07-13T11:43:22;99622.00;;;25.96;33.49
23953;BME280;12163;49.316;6.092;2023-07-13T11:45:52;99619.66;;;25.98;32.70
23953;BME280;12163;49.316;6.092;2023-07-13T11:48:27;99619.66;;;25.98;32.60
23953;BME280;12163;49.316;6.092;2023-07-13T11:51:04;99615.72;;;26.03;33.19
23953;BME280;12163;49.316;6.092;2023-07-13T11:53:40;99611.94;;;26.28;31.95
23953;BME280;12163;49.316;6.092;2023-07-13T11:56:07;99613.53;;;26.36;30.78
23953;BME280;12163;49.316;6.092;2023-07-13T11:58:34;99616.34;;;26.47;30.94
23953;BME280;12163;49.316;6.092;2023-07-13T12:01:02;99629.50;;;26.60;31.25
23953;BME280;12163;49.316;6.092;2023-07-13T12:03:33;99612.94;;;26.74;30.58
23953;BME280;12163;49.316;6.092;2023-07-13T12:06:06;99615.31;;;26.72;30.34
23953;BME280;12163;49.316;6.092;2023-07-13T12:08:47;99609.31;;;26.56;30.23
23953;BME280;12163;49.316;6.092;2023-07-13T12:11:16;99619.25;;;26.64;30.67
23953;BME280;12163;49.316;6.092;2023-07-13T12:13:44;99616.06;;;26.66;30.18
23953;BME280;12163;49.316;6.092;2023-07-13T12:16:25;99612.09;;;26.63;30.41
23953;BME280;12163;49.316;6.092;2023-07-13T12:18:54;99595.97;;;26.76;30.01
23953;BME280;12163;49.316;6.092;2023-07-13T12:21:30;99608.19;;;26.64;30.59
23953;BME280;12163;49.316;6.092;2023-07-13T12:23:57;99601.00;;;26.56;30.58
23953;BME280;12163;49.316;6.092;2023-07-13T12:26:24;99619.97;;;26.54;30.79
23953;BME280;12163;49.316;6.092;2023-07-13T12:28:54;99608.09;;;26.50;30.48
23953;BME280;12163;49.316;6.092;2023-07-13T12:31:30;99601.84;;;26.67;30.26
23953;BME280;12163;49.316;6.092;2023-07-13T12:34:18;99610.50;;;26.55;30.13
23953;BME280;12163;49.316;6.092;2023-07-13T12:36:53;99608.06;;;26.43;30.57
23953;BME280;12163;49.316;6.092;2023-07-13T12:39:47;99610.00;;;26.39;30.94
23953;BME280;12163;49.316;6.092;2023-07-13T12:44:45;99599.09;;;26.71;30.90
23953;BME280;12163;49.316;6.092;2023-07-13T12:47:13;99598.72;;;26.79;30.44
23953;BME280;12163;49.316;6.092;2023-07-13T12:49:56;99606.25;;;26.82;30.83
23953;BME280;12163;49.316;6.092;2023-07-13T12:52:30;99619.28;;;26.78;30.20
23953;BME280;12163;49.316;6.092;2023-07-13T12:55:01;99617.63;;;26.56;30.12
23953;BME280;12163;49.316;6.092;2023-07-13T12:57:38;99617.13;;;26.44;30.26
23953;BME280;12163;49.316;6.092;2023-07-13T13:00:22;99609.94;;;26.25;30.79
23953;BME280;12163;49.316;6.092;2023-07-13T13:02:53;99609.53;;;26.23;31.13
23953;BME280;12163;49.316;6.092;2023-07-13T13:05:42;99606.38;;;26.28;31.41
23953;BME280;12163;49.316;6.092;2023-07-13T13:08:11;99612.31;;;26.23;32.02
23953;BME280;12163;49.316;6.092;2023-07-13T13:10:38;99611.91;;;26.21;32.33
23953;BME280;12163;49.316;6.092;2023-07-13T13:13:04;99616.97;;;26.12;32.30
23953;BME280;12163;49.316;6.092;2023-07-13T13:15:31;99639.44;;;26.00;32.57
23953;BME280;12163;49.316;6.092;2023-07-13T13:17:59;99629.09;;;25.94;32.58
23953;BME280;12163;49.316;6.092;2023-07-13T13:20:26;99627.50;;;25.93;32.70
23953;BME280;12163;49.316;6.092;2023-07-13T13:22:53;99613.69;;;25.96;31.74
23953;BME280;12163;49.316;6.092;2023-07-13T13:25:21;99623.50;;;25.84;32.07
23953;BME280;12163;49.316;6.092;2023-07-13T13:27:49;99630.66;;;25.88;32.42
23953;BME280;12163;49.316;6.092;2023-07-13T13:30:17;99615.63;;;25.89;32.08
23953;BME280;12163;49.316;6.092;2023-07-13T13:32:46;99614.94;;;26.02;32.16
23953;BME280;12163;49.316;6.092;2023-07-13T13:35:19;99621.38;;;26.20;31.76
23953;BME280;12163;49.316;6.092;2023-07-13T13:37:46;99621.06;;;26.36;31.71
23953;BME280;12163;49.316;6.092;2023-07-13T13:40:20;99612.09;;;26.63;31.36